Arenas De San Pedro, Spain
Current Conditions -  °F | °C
As of 8:00 PM on Sunday 25 Jan 2015 (Local Time) from LEVS Reporting Station
Clear Clear  
Wind Chill: 43°   Ceiling: Unl
Heat Index: 43°   Visibility: 6mi
Dew Point: 25°   Wind: 3mph
Humidity: 49%   Direction: 290°WNW
Pressure: 30.3"   Gusts: NA
Location:  40.21°N, 5.09°W
Report Text: LEVS 251900Z 29003KT 240V340 CAVOK 06/M04 Q1026
Loading
Personal Weather Stations






























Interactive Weather Map New forecast layout! Learn more

10-Day Weather Forecast

Advertisements
Track Severe Weather on mobile